Time;durP1;ratioP1;P1;durP2;ratioP2;P2;SDS_P1;SDS_P2;PMS_P1;PMS_P2;Temp;Humidity;BMP_temperature;BMP_pressure;BME280_temperature;BME280_humidity;BME280_pressure;Samples;Min_cycle;Max_cycle;Signal;HPM_P1;HPM_P2
2023/01/23 00:01:17;;;;;;;17.52;10.00;;;;;;;9.25;62.81;102043.97;5107969;28;20463;-76
2023/01/23 00:03:43;;;;;;;18.63;11.00;;;;;;;9.24;63.22;102045.78;5099560;28;20379;-76
2023/01/23 00:06:13;;;;;;;17.70;10.05;;;;;;;9.28;63.30;102052.47;5100084;28;20470;-77
2023/01/23 00:08:41;;;;;;;17.63;10.13;;;;;;;9.28;62.92;102051.66;5104550;28;20381;-76
2023/01/23 00:11:09;;;;;;;18.77;9.98;;;;;;;9.23;63.30;102056.47;5093475;28;20764;-77
2023/01/23 00:13:35;;;;;;;18.40;10.63;;;;;;;9.24;63.06;102059.00;5093381;28;20744;-77
2023/01/23 00:16:09;;;;;;;17.10;10.43;;;;;;;9.37;62.57;102053.53;5092267;28;20381;-76
2023/01/23 00:18:34;;;;;;;18.60;10.88;;;;;;;9.28;63.32;102043.72;5095255;28;20450;-77
2023/01/23 00:21:09;;;;;;;19.10;10.90;;;;;;;9.25;63.58;102049.25;5093976;28;20560;-78
2023/01/23 00:23:35;;;;;;;19.85;11.30;;;;;;;9.22;63.28;102060.94;5091928;28;20386;-78
2023/01/23 00:26:07;;;;;;;22.30;11.63;;;;;;;9.19;63.48;102061.19;5097893;28;20373;-79
2023/01/23 00:28:33;;;;;;;20.10;11.57;;;;;;;9.22;63.43;102063.59;5096446;28;20405;-78
2023/01/23 00:31:08;;;;;;;18.63;10.70;;;;;;;9.21;63.17;102053.97;5096389;28;20411;-78
2023/01/23 00:33:33;;;;;;;18.27;10.60;;;;;;;9.23;63.52;102057.31;5107729;28;20411;-79
2023/01/23 00:35:59;;;;;;;18.23;10.13;;;;;;;9.07;63.56;102059.56;5097899;28;20755;-78
2023/01/23 00:38:25;;;;;;;18.53;10.13;;;;;;;9.05;63.88;102053.56;5103014;28;20474;-79
2023/01/23 00:40:50;;;;;;;19.70;12.27;;;;;;;9.13;63.56;102059.06;5113303;28;20467;-79
2023/01/23 00:43:16;;;;;;;17.10;9.45;;;;;;;9.11;63.18;102063.63;5103929;28;20482;-79
2023/01/23 00:45:42;;;;;;;31.10;14.63;;;;;;;9.09;63.25;102065.56;5116783;28;20390;-79
2023/01/23 00:48:07;;;;;;;34.05;15.68;;;;;;;9.13;63.49;102075.78;5095366;28;20413;-78
2023/01/23 00:50:33;;;;;;;20.40;10.30;;;;;;;9.17;63.55;102074.53;5095220;28;20405;-78
2023/01/23 00:52:58;;;;;;;18.37;10.27;;;;;;;9.18;63.23;102068.28;5096239;28;20563;-79
2023/01/23 00:55:24;;;;;;;18.13;9.57;;;;;;;9.14;63.25;102063.38;5095927;28;20446;-79
2023/01/23 00:57:49;;;;;;;16.00;9.43;;;;;;;9.08;63.33;102066.53;5109441;28;20432;-79
2023/01/23 01:00:15;;;;;;;14.93;9.07;;;;;;;9.07;63.74;102070.97;5115028;28;20383;-78
2023/01/23 01:02:41;;;;;;;15.87;9.73;;;;;;;9.10;63.70;102068.09;5102473;28;20458;-79
2023/01/23 01:05:07;;;;;;;15.83;9.43;;;;;;;9.16;63.74;102069.38;5113481;28;20786;-79
2023/01/23 01:07:32;;;;;;;15.75;9.32;;;;;;;9.21;63.76;102061.91;5104125;28;20377;-78
2023/01/23 01:09:58;;;;;;;14.77;8.93;;;;;;;9.14;63.26;102066.84;5094599;28;20409;-78
2023/01/23 01:12:23;;;;;;;15.00;9.00;;;;;;;9.10;63.59;102061.97;5103429;28;20375;-79
2023/01/23 01:14:49;;;;;;;13.23;8.63;;;;;;;9.12;63.76;102054.72;5101095;28;20373;-79
2023/01/23 01:17:14;;;;;;;16.25;9.30;;;;;;;9.06;63.65;102061.38;5104635;28;20384;-78
2023/01/23 01:19:40;;;;;;;15.97;9.50;;;;;;;9.02;64.06;102064.38;5097824;28;20396;-79
2023/01/23 01:22:05;;;;;;;14.03;8.50;;;;;;;9.05;63.84;102056.19;5100339;28;20425;-79
2023/01/23 01:24:31;;;;;;;15.38;8.82;;;;;;;9.18;63.87;102067.44;5105803;28;20412;-79
2023/01/23 01:26:56;;;;;;;13.65;8.32;;;;;;;9.19;63.39;102075.25;5109993;28;20380;-79
2023/01/23 01:29:22;;;;;;;12.77;7.60;;;;;;;9.19;63.77;102083.19;5114884;28;20411;-79
2023/01/23 01:31:47;;;;;;;13.67;8.30;;;;;;;9.14;63.98;102069.50;5107309;28;20424;-78
2023/01/23 01:34:13;;;;;;;13.48;8.02;;;;;;;9.03;63.95;102074.00;5106384;28;20396;-79
2023/01/23 01:36:38;;;;;;;15.10;8.53;;;;;;;8.96;64.47;102068.38;5099344;28;20534;-79
2023/01/23 01:39:04;;;;;;;13.40;8.70;;;;;;;8.97;64.32;102073.53;5101650;28;20379;-79
2023/01/23 01:41:30;;;;;;;12.85;8.35;;;;;;;8.93;64.34;102060.69;5096487;28;20421;-79
2023/01/23 01:43:58;;;;;;;13.82;8.57;;;;;;;9.03;64.46;102060.78;5094581;27;20486;-78
2023/01/23 01:46:29;;;;;;;15.32;8.98;;;;;;;9.01;64.09;102062.72;5093380;28;20469;-78
2023/01/23 01:49:09;;;;;;;13.48;8.80;;;;;;;9.01;64.10;102055.63;5096300;28;20405;-78
2023/01/23 01:51:44;;;;;;;16.92;11.30;;;;;;;8.96;64.34;102055.97;5093102;28;20405;-78
2023/01/23 01:54:42;;;;;;;16.13;10.43;;;;;;;9.06;64.22;102079.06;5094785;28;20381;-78
2023/01/23 01:57:22;;;;;;;16.17;9.97;;;;;;;9.18;63.98;102084.16;5092252;28;20391;-77
2023/01/23 01:59:59;;;;;;;15.40;9.63;;;;;;;9.28;64.02;102084.22;5094165;28;20405;-78
2023/01/23 02:02:34;;;;;;;15.20;9.63;;;;;;;9.35;63.43;102092.50;5092011;28;20381;-77
2023/01/23 02:05:03;;;;;;;13.82;9.25;;;;;;;9.31;63.36;102083.13;5091415;28;20381;-78
2023/01/23 02:07:40;;;;;;;15.13;9.38;;;;;;;9.28;63.67;102094.81;5091300;28;20388;-78
2023/01/23 02:10:09;;;;;;;13.43;9.02;;;;;;;9.19;64.21;102092.94;5091038;28;20408;-77
2023/01/23 02:12:35;;;;;;;15.25;8.98;;;;;;;9.21;64.32;102093.66;5094958;28;20386;-77
2023/01/23 02:15:06;;;;;;;21.27;17.73;;;;;;;9.27;64.29;102103.72;5095763;28;20435;-78
2023/01/23 02:17:35;;;;;;;14.47;8.60;;;;;;;8.94;66.22;102097.59;5094411;28;20377;-78
2023/01/23 02:20:12;;;;;;;16.65;8.52;;;;;;;8.69;68.46;102100.56;5090855;28;20402;-78
2023/01/23 02:22:54;;;;;;;17.25;8.98;;;;;;;8.58;70.15;102094.31;5094854;28;20369;-79
2023/01/23 02:25:35;;;;;;;16.15;8.38;;;;;;;8.55;70.27;102094.56;5094944;28;20388;-78
2023/01/23 02:28:01;;;;;;;17.38;8.93;;;;;;;8.51;71.29;102105.50;5108217;28;20388;-79
2023/01/23 02:30:26;;;;;;;21.00;8.77;;;;;;;8.54;70.87;102092.06;5094350;28;20444;-79
2023/01/23 02:32:52;;;;;;;21.57;9.67;;;;;;;8.34;71.72;102083.88;5091271;28;20942;-79
2023/01/23 02:35:26;;;;;;;23.02;9.23;;;;;;;8.58;71.09;102096.13;5092817;28;20919;-78
2023/01/23 02:37:57;;;;;;;18.50;9.53;;;;;;;8.53;71.04;102103.56;5091723;28;20381;-78
2023/01/23 02:40:35;;;;;;;22.02;10.10;;;;;;;8.51;71.37;102097.56;5097382;28;20377;-79
2023/01/23 02:43:03;;;;;;;21.88;10.10;;;;;;;8.64;71.08;102100.06;5094572;28;20506;-79
2023/01/23 02:45:30;;;;;;;18.25;9.38;;;;;;;8.68;70.87;102105.00;5094564;28;20387;-79
2023/01/23 02:47:56;;;;;;;15.30;9.20;;;;;;;8.58;71.57;102109.34;5094452;28;20381;-78
2023/01/23 02:50:21;;;;;;;19.17;9.40;;;;;;;8.73;70.93;102110.75;5091427;28;21237;-77
2023/01/23 02:52:49;;;;;;;17.33;8.93;;;;;;;8.48;71.58;102105.75;5091533;28;20816;-78
2023/01/23 02:55:16;;;;;;;16.83;11.13;;;;;;;8.60;71.23;102104.75;5092077;28;20373;-78
2023/01/23 02:57:42;;;;;;;14.93;8.97;;;;;;;8.47;71.73;102107.56;5092463;28;20386;-77
2023/01/23 03:00:19;;;;;;;15.60;8.80;;;;;;;8.67;70.87;102111.25;5092129;28;20373;-78
2023/01/23 03:02:49;;;;;;;19.33;9.23;;;;;;;8.44;71.72;102107.78;5094135;28;20405;-77
2023/01/23 03:05:16;;;;;;;16.42;8.10;;;;;;;8.38;71.67;102121.47;5103441;28;20377;-77
2023/01/23 03:07:41;;;;;;;17.75;8.43;;;;;;;8.26;71.79;102111.84;5106758;28;20385;-77
2023/01/23 03:10:08;;;;;;;14.93;7.68;;;;;;;8.12;72.38;102119.06;5089826;28;20430;-77
2023/01/23 03:12:34;;;;;;;17.02;8.43;;;;;;;7.90;73.28;102113.75;5093596;28;20893;-77
2023/01/23 03:15:00;;;;;;;15.65;8.45;;;;;;;7.97;72.81;102110.50;5090350;28;20769;-77
2023/01/23 03:17:27;;;;;;;15.23;8.35;;;;;;;8.16;71.81;102111.75;5090231;28;20412;-77
2023/01/23 03:19:54;;;;;;;13.53;7.90;;;;;;;8.20;71.38;102111.38;5090682;28;20477;-77
2023/01/23 03:22:20;;;;;;;15.55;7.85;;;;;;;8.00;72.27;102117.38;5100112;28;20383;-77
2023/01/23 03:24:45;;;;;;;17.17;8.57;;;;;;;8.11;71.90;102138.50;5100198;28;20475;-77
2023/01/23 03:27:11;;;;;;;17.23;8.43;;;;;;;8.19;71.96;102119.41;5095372;28;20431;-77
2023/01/23 03:32:21;;;;;;;16.58;8.55;;;;;;;8.08;72.30;102124.69;5095074;28;20798;-78
2023/01/23 03:34:47;;;;;;;19.10;8.73;;;;;;;8.18;71.67;102137.06;5094196;28;20866;-78
2023/01/23 03:37:14;;;;;;;18.90;8.63;;;;;;;8.07;71.92;102125.63;5103231;28;20401;-78
2023/01/23 03:42:23;;;;;;;15.43;8.65;;;;;;;8.19;72.07;102127.34;5097046;28;20483;-78
2023/01/23 03:44:50;;;;;;;17.35;8.80;;;;;;;8.13;71.74;102123.38;5099763;28;20817;-78
2023/01/23 03:47:16;;;;;;;15.63;8.65;;;;;;;8.26;71.36;102128.53;5098083;28;20380;-78
2023/01/23 03:49:41;;;;;;;16.90;8.50;;;;;;;8.24;70.98;102117.25;5102287;28;20364;-77
2023/01/23 03:52:07;;;;;;;16.57;8.90;;;;;;;8.28;70.94;102118.69;5099013;28;20702;-80
2023/01/23 03:54:32;;;;;;;19.80;8.98;;;;;;;8.27;70.85;102121.47;5097508;28;20416;-77
2023/01/23 03:56:58;;;;;;;17.43;8.83;;;;;;;8.40;70.52;102130.94;5098074;28;20407;-77
2023/01/23 03:59:23;;;;;;;17.33;8.97;;;;;;;8.16;71.05;102133.72;5094803;28;20411;-77
2023/01/23 04:01:49;;;;;;;23.35;10.55;;;;;;;8.21;71.32;102126.28;5093236;28;20846;-77
2023/01/23 04:04:14;;;;;;;22.03;9.83;;;;;;;8.27;70.75;102116.19;5092711;28;20411;-77
2023/01/23 04:06:40;;;;;;;19.87;10.27;;;;;;;7.91;71.70;102133.94;5095491;28;20373;-77
2023/01/23 04:09:05;;;;;;;23.50;9.48;;;;;;;7.86;71.51;102123.69;5095703;28;20382;-76
2023/01/23 04:11:31;;;;;;;21.03;10.33;;;;;;;8.10;70.82;102134.16;5094001;28;20437;-77
2023/01/23 04:13:56;;;;;;;22.23;9.87;;;;;;;7.89;71.41;102134.03;5092438;28;20424;-77
2023/01/23 04:16:22;;;;;;;17.08;9.10;;;;;;;7.96;71.03;102137.88;5093323;28;20377;-77
2023/01/23 04:18:49;;;;;;;21.00;10.00;;;;;;;7.91;70.85;102126.84;5093216;28;20476;-78
2023/01/23 04:21:14;;;;;;;16.92;9.38;;;;;;;7.78;71.05;102139.31;5092990;28;20386;-77
2023/01/23 04:23:40;;;;;;;16.08;9.55;;;;;;;7.56;72.40;102145.34;5092699;28;20411;-77
2023/01/23 04:26:06;;;;;;;17.80;8.80;;;;;;;7.56;71.78;102140.91;5098763;28;20396;-77
2023/01/23 04:28:31;;;;;;;23.73;9.43;;;;;;;7.65;71.67;102134.94;5092893;28;20381;-78
2023/01/23 04:30:57;;;;;;;21.02;9.43;;;;;;;7.72;71.49;102151.13;5092367;28;20405;-77
2023/01/23 04:33:22;;;;;;;16.30;9.40;;;;;;;7.61;71.72;102143.19;5098710;28;20379;-77
2023/01/23 04:35:59;;;;;;;17.30;8.67;;;;;;;7.46;71.87;102147.84;5092588;28;20430;-77
2023/01/23 04:38:27;;;;;;;18.23;8.97;;;;;;;7.59;71.43;102155.66;5095296;28;20880;-76
2023/01/23 04:40:52;;;;;;;21.27;9.10;;;;;;;7.51;71.95;102166.81;5098637;28;20389;-77
2023/01/23 04:43:18;;;;;;;16.93;8.03;;;;;;;7.33;72.03;102165.50;5097608;28;20513;-76
2023/01/23 04:45:44;;;;;;;20.05;8.30;;;;;;;7.37;71.94;102164.34;5098060;28;20385;-76
2023/01/23 04:48:11;;;;;;;19.50;8.33;;;;;;;7.44;71.48;102162.94;5106717;28;20872;-76
2023/01/23 04:50:37;;;;;;;19.23;9.02;;;;;;;7.41;71.47;102173.72;5100173;28;20410;-76
2023/01/23 04:53:04;;;;;;;17.25;8.73;;;;;;;7.34;71.37;102164.56;5101164;28;20380;-76
2023/01/23 04:55:29;;;;;;;17.95;8.95;;;;;;;7.47;71.33;102167.97;5104771;28;20740;-76
2023/01/23 04:57:55;;;;;;;15.03;7.83;;;;;;;7.45;70.84;102154.06;5102679;28;21101;-76
2023/01/23 05:00:21;;;;;;;16.42;7.68;;;;;;;7.34;71.32;102175.13;5101397;28;20376;-76
2023/01/23 05:02:48;;;;;;;18.90;8.53;;;;;;;7.39;71.31;102178.25;5099115;28;20474;-76
2023/01/23 05:05:16;;;;;;;17.42;8.02;;;;;;;7.32;71.11;102182.31;5101081;28;20383;-75
2023/01/23 05:07:42;;;;;;;13.70;7.55;;;;;;;7.65;70.04;102186.88;5097801;28;20365;-76
2023/01/23 05:10:08;;;;;;;18.37;8.03;;;;;;;7.43;70.39;102177.06;5106213;28;20395;-75
2023/01/23 05:12:34;;;;;;;18.65;8.55;;;;;;;7.34;70.84;102183.03;5103490;28;20456;-76
2023/01/23 05:14:59;;;;;;;16.83;7.68;;;;;;;7.39;70.36;102212.56;5103846;28;20838;-76
2023/01/23 05:17:25;;;;;;;17.20;7.55;;;;;;;7.43;70.32;102199.00;5100807;28;20377;-75
2023/01/23 05:19:53;;;;;;;17.40;7.70;;;;;;;7.40;70.66;102203.66;5105014;28;20426;-75
2023/01/23 05:22:18;;;;;;;15.70;7.90;;;;;;;7.41;70.19;102205.38;5104407;28;20430;-76
2023/01/23 05:24:44;;;;;;;15.33;7.53;;;;;;;7.39;70.28;102225.75;5100023;28;20392;-75
2023/01/23 05:27:11;;;;;;;16.87;7.37;;;;;;;7.21;70.77;102231.41;5101958;28;20450;-76
2023/01/23 05:29:36;;;;;;;15.95;7.03;;;;;;;7.07;71.04;102234.19;5093731;28;20443;-76
2023/01/23 05:32:02;;;;;;;19.05;7.68;;;;;;;7.14;70.93;102229.31;5099056;28;20405;-75
2023/01/23 05:34:27;;;;;;;17.07;7.37;;;;;;;6.88;71.14;102229.38;5093605;28;20401;-75
2023/01/23 05:36:53;;;;;;;19.40;7.23;;;;;;;6.70;71.63;102237.63;5093865;28;20896;-75
2023/01/23 05:39:18;;;;;;;17.67;6.70;;;;;;;6.67;71.82;102229.94;5089747;28;20426;-75
2023/01/23 05:41:44;;;;;;;20.90;7.47;;;;;;;6.84;71.53;102231.41;5093751;28;20382;-75
2023/01/23 05:44:09;;;;;;;16.37;7.03;;;;;;;6.91;70.96;102220.41;5093818;28;20842;-76
2023/01/23 05:46:35;;;;;;;17.33;7.27;;;;;;;6.94;70.94;102220.19;5094688;28;20389;-75
2023/01/23 05:49:00;;;;;;;18.77;6.82;;;;;;;6.67;71.50;102215.91;5092819;28;20381;-75
2023/01/23 05:51:31;;;;;;;15.80;7.20;;;;;;;6.89;71.12;102225.78;5095919;28;20397;-75
2023/01/23 05:53:57;;;;;;;18.92;7.28;;;;;;;6.99;70.46;102226.00;5095116;28;21053;-75
2023/01/23 05:56:24;;;;;;;14.50;5.97;;;;;;;7.01;70.07;102230.19;5100047;28;20388;-76
2023/01/23 05:58:50;;;;;;;16.37;7.23;;;;;;;6.87;71.05;102249.59;5094934;28;20397;-75
2023/01/23 06:01:15;;;;;;;18.88;6.95;;;;;;;6.90;70.71;102253.84;5095444;28;20382;-75
2023/01/23 06:03:41;;;;;;;14.73;6.70;;;;;;;6.93;70.80;102258.88;5092292;28;21113;-75
2023/01/23 06:06:06;;;;;;;11.97;6.30;;;;;;;6.89;70.78;102252.97;5096711;28;20378;-75
2023/01/23 06:08:32;;;;;;;16.20;6.43;;;;;;;6.91;70.32;102267.84;5090231;28;20868;-76
2023/01/23 06:10:58;;;;;;;12.30;6.13;;;;;;;6.78;70.76;102268.72;5101552;28;20970;-76
2023/01/23 06:13:25;;;;;;;11.75;5.95;;;;;;;6.92;70.76;102274.84;5093871;28;20385;-76
2023/01/23 06:15:51;;;;;;;12.23;5.68;;;;;;;6.75;70.84;102291.81;5090393;28;20373;-75
2023/01/23 06:18:16;;;;;;;16.23;6.63;;;;;;;6.83;70.73;102278.94;5092417;28;20400;-75
2023/01/23 06:20:42;;;;;;;17.73;6.50;;;;;;;6.74;70.88;102290.97;5092643;28;20464;-74
2023/01/23 06:23:07;;;;;;;14.80;6.13;;;;;;;6.63;71.39;102277.69;5094804;28;20377;-75
2023/01/23 06:25:34;;;;;;;12.00;5.35;;;;;;;6.64;71.38;102282.00;5099078;28;20454;-75
2023/01/23 06:28:00;;;;;;;12.10;6.32;;;;;;;6.80;70.86;102295.81;5094392;28;20378;-74
2023/01/23 06:30:26;;;;;;;13.80;6.15;;;;;;;6.65;70.83;102286.34;5094296;28;20412;-74
2023/01/23 06:32:51;;;;;;;12.05;5.15;;;;;;;6.59;71.30;102302.53;5099539;28;20728;-75
2023/01/23 06:35:17;;;;;;;15.13;7.00;;;;;;;6.58;71.76;102308.78;5098647;28;20369;-75
2023/01/23 06:37:43;;;;;;;11.20;5.95;;;;;;;6.76;71.18;102309.31;5093256;28;20371;-75
2023/01/23 06:40:12;;;;;;;10.43;5.90;;;;;;;6.65;70.98;102305.63;5100915;28;20364;-76
2023/01/23 06:42:39;;;;;;;11.80;5.53;;;;;;;6.80;70.69;102308.97;5099858;28;20383;-75
2023/01/23 06:45:06;;;;;;;10.88;5.65;;;;;;;6.69;71.16;102322.06;5092739;28;20385;-76
2023/01/23 06:47:31;;;;;;;10.23;5.30;;;;;;;6.60;71.36;102312.97;5094382;28;20384;-76
2023/01/23 06:49:57;;;;;;;12.80;7.20;;;;;;;6.69;71.16;102307.06;5089710;28;20385;-77
2023/01/23 06:52:22;;;;;;;13.47;5.40;;;;;;;6.61;70.89;102306.78;5090483;28;20377;-76
2023/01/23 06:54:48;;;;;;;12.67;6.87;;;;;;;6.64;71.50;102313.63;5089830;28;20373;-76
2023/01/23 06:57:13;;;;;;;12.07;5.87;;;;;;;6.62;71.28;102318.16;5090102;28;20513;-76
2023/01/23 06:59:39;;;;;;;13.70;7.18;;;;;;;6.80;70.49;102321.31;5095814;28;20382;-76
2023/01/23 07:02:05;;;;;;;14.50;6.50;;;;;;;6.91;70.28;102333.75;5095872;28;20438;-80
2023/01/23 07:04:32;;;;;;;12.02;6.18;;;;;;;6.72;70.24;102329.75;5094682;28;20454;-76
2023/01/23 07:06:58;;;;;;;12.70;7.05;;;;;;;6.68;70.94;102328.25;5095408;28;20384;-75
2023/01/23 07:09:23;;;;;;;12.37;6.80;;;;;;;6.92;70.12;102335.47;5094405;28;20377;-76
2023/01/23 07:11:49;;;;;;;14.63;6.70;;;;;;;6.90;70.05;102343.47;5094161;28;20509;-75
2023/01/23 07:14:15;;;;;;;13.68;6.70;;;;;;;6.92;69.93;102335.47;5094517;28;20773;-75
2023/01/23 07:16:40;;;;;;;16.17;6.77;;;;;;;6.77;70.52;102334.69;5094570;28;20369;-76
2023/01/23 07:19:06;;;;;;;13.67;6.67;;;;;;;6.92;69.95;102346.00;5094085;28;20495;-77
2023/01/23 07:21:31;;;;;;;20.08;9.32;;;;;;;6.80;70.10;102353.78;5093797;28;20377;-76
2023/01/23 07:23:57;;;;;;;15.02;7.97;;;;;;;6.61;70.88;102341.03;5094733;28;20369;-78
2023/01/23 07:26:22;;;;;;;14.57;6.97;;;;;;;6.77;70.48;102346.13;5092279;28;20434;-78
2023/01/23 07:28:48;;;;;;;11.80;6.23;;;;;;;6.56;70.71;102355.47;5091510;28;20389;-75
2023/01/23 07:31:13;;;;;;;10.97;6.00;;;;;;;6.51;70.98;102355.75;5094668;28;20467;-75
2023/01/23 07:33:39;;;;;;;10.57;6.25;;;;;;;6.74;70.52;102369.19;5094014;28;20392;-75
2023/01/23 07:36:06;;;;;;;11.50;6.60;;;;;;;6.85;69.88;102361.38;5092774;28;20754;-75
2023/01/23 07:38:31;;;;;;;11.07;5.65;;;;;;;6.84;69.88;102372.88;5093436;28;20840;-76
2023/01/23 07:40:58;;;;;;;11.43;6.30;;;;;;;6.62;70.61;102365.59;5093125;28;20434;-76
2023/01/23 07:43:24;;;;;;;12.13;6.63;;;;;;;6.71;70.04;102370.22;5093209;28;20416;-77
2023/01/23 07:45:49;;;;;;;14.43;6.10;;;;;;;6.58;70.47;102374.66;5105028;28;20437;-76
2023/01/23 07:48:15;;;;;;;12.73;6.10;;;;;;;6.59;70.75;102381.59;5096887;28;20386;-75
2023/01/23 07:50:41;;;;;;;13.02;6.28;;;;;;;6.66;70.41;102377.59;5092648;28;20409;-75
2023/01/23 07:53:06;;;;;;;11.60;6.10;;;;;;;6.93;69.65;102372.25;5098577;28;20370;-76
2023/01/23 07:55:33;;;;;;;12.13;6.20;;;;;;;7.06;69.07;102383.66;5093456;28;20388;-74
2023/01/23 07:57:58;;;;;;;14.13;6.72;;;;;;;7.08;68.75;102376.47;5104215;28;20728;-75
2023/01/23 08:00:24;;;;;;;15.55;6.82;;;;;;;6.96;69.28;102382.59;5098441;28;20364;-75
2023/01/23 08:02:50;;;;;;;12.55;6.18;;;;;;;7.30;71.92;102384.69;5092558;28;20468;-76
2023/01/23 08:05:16;;;;;;;10.32;5.45;;;;;;;8.12;69.20;102390.25;5096361;28;20533;-77
2023/01/23 08:07:41;;;;;;;9.52;5.35;;;;;;;7.35;67.51;102383.41;5102895;28;20724;-76
2023/01/23 08:10:08;;;;;;;11.25;6.05;;;;;;;6.91;68.91;102405.78;5098939;28;20373;-76
2023/01/23 08:12:33;;;;;;;10.55;5.60;;;;;;;7.04;68.93;102382.91;5108877;28;20379;-76
2023/01/23 08:14:59;;;;;;;11.25;5.88;;;;;;;6.97;68.70;102400.09;5100961;28;20805;-75
2023/01/23 08:17:24;;;;;;;10.30;5.50;;;;;;;7.06;68.85;102396.00;5097036;28;20364;-75
2023/01/23 08:19:50;;;;;;;9.25;5.30;;;;;;;6.82;69.01;102385.31;5103148;28;20385;-75
2023/01/23 08:22:16;;;;;;;11.87;5.87;;;;;;;6.69;69.41;102393.22;5093705;28;20742;-74
2023/01/23 08:24:41;;;;;;;14.43;6.00;;;;;;;6.92;69.06;102393.47;5096843;28;20514;-75
2023/01/23 08:27:07;;;;;;;10.23;5.93;;;;;;;6.79;68.93;102401.31;5113648;28;20372;-75
2023/01/23 08:29:32;;;;;;;12.05;6.97;;;;;;;7.03;68.43;102391.75;5110363;28;20745;-74
2023/01/23 08:31:58;;;;;;;14.77;7.87;;;;;;;7.05;68.62;102404.84;5096465;28;20401;-75
2023/01/23 08:34:24;;;;;;;11.93;6.60;;;;;;;6.82;68.82;102409.88;5094331;28;20380;-75
2023/01/23 08:36:50;;;;;;;14.13;7.43;;;;;;;6.73;69.41;102415.78;5092685;28;20737;-76
2023/01/23 08:39:16;;;;;;;11.82;6.70;;;;;;;6.73;69.03;102410.50;5092926;28;20385;-75
2023/01/23 08:41:42;;;;;;;12.65;6.50;;;;;;;6.81;68.94;102402.09;5097242;28;20467;-75
2023/01/23 08:44:07;;;;;;;11.30;5.90;;;;;;;6.88;68.90;102411.28;5101818;28;20460;-74
2023/01/23 08:46:33;;;;;;;12.02;6.43;;;;;;;6.54;69.53;102413.53;5094858;28;20389;-76
2023/01/23 08:48:58;;;;;;;15.63;7.23;;;;;;;6.49;69.95;102418.25;5106971;28;20442;-75
2023/01/23 08:51:26;;;;;;;12.17;7.07;;;;;;;6.59;69.61;102408.81;5095230;28;20423;-77
2023/01/23 08:53:52;;;;;;;12.65;6.43;;;;;;;6.68;69.47;102408.19;5106544;28;20416;-75
2023/01/23 08:56:20;;;;;;;10.43;6.38;;;;;;;6.42;69.96;102412.53;5094331;28;20803;-76
2023/01/23 08:58:46;;;;;;;14.45;6.65;;;;;;;6.60;69.92;102417.53;5092545;28;20730;-74
2023/01/23 09:01:14;;;;;;;16.33;6.97;;;;;;;6.66;69.48;102415.34;5092304;28;20406;-75
2023/01/23 09:03:40;;;;;;;15.75;7.10;;;;;;;6.86;69.12;102415.78;5092247;28;20373;-77
2023/01/23 09:06:06;;;;;;;11.73;7.20;;;;;;;7.12;68.19;102416.66;5094230;28;20438;-75
2023/01/23 09:08:32;;;;;;;14.63;6.88;;;;;;;6.94;68.92;102431.94;5096746;28;20386;-75
2023/01/23 09:11:05;;;;;;;15.10;6.90;;;;;;;6.77;68.83;102430.44;5091888;28;20404;-75
2023/01/23 09:13:32;;;;;;;12.55;6.70;;;;;;;6.88;68.69;102440.28;5100117;28;20381;-76
2023/01/23 09:15:57;;;;;;;12.20;5.83;;;;;;;6.69;69.11;102438.00;5107507;28;20378;-76
2023/01/23 09:18:24;;;;;;;13.87;7.40;;;;;;;6.66;69.34;102449.63;5100227;28;20373;-75
2023/01/23 09:20:50;;;;;;;10.13;6.22;;;;;;;6.45;69.85;102435.22;5091229;28;20376;-76
2023/01/23 09:23:15;;;;;;;12.93;6.80;;;;;;;6.72;69.12;102427.28;5091071;28;20380;-76
2023/01/23 09:25:41;;;;;;;13.20;7.57;;;;;;;6.64;69.66;102429.56;5092170;28;20373;-77
2023/01/23 09:28:06;;;;;;;14.40;7.07;;;;;;;6.74;69.01;102433.28;5091369;28;20849;-75
2023/01/23 09:30:32;;;;;;;11.10;6.07;;;;;;;6.56;69.50;102437.97;5091897;28;20409;-76
2023/01/23 09:32:57;;;;;;;12.73;6.20;;;;;;;6.48;69.76;102427.09;5094427;28;20395;-75
2023/01/23 09:35:23;;;;;;;13.63;7.13;;;;;;;6.50;69.91;102443.66;5103568;28;20499;-75
2023/01/23 09:38:03;;;;;;;13.98;8.30;;;;;;;6.48;69.77;102429.72;5105492;28;20372;-76
2023/01/23 09:40:43;;;;;;;10.27;6.15;;;;;;;6.41;69.88;102431.94;5091873;28;20470;-74
2023/01/23 09:43:23;;;;;;;13.10;6.72;;;;;;;6.30;70.53;102443.16;5108404;28;20475;-75
2023/01/23 09:45:57;;;;;;;10.80;5.90;;;;;;;6.28;70.36;102434.53;5112827;28;20437;-76
2023/01/23 09:48:44;;;;;;;12.30;6.32;;;;;;;6.26;70.26;102425.84;5094145;28;20476;-76
2023/01/23 09:51:19;;;;;;;11.90;5.80;;;;;;;6.20;70.47;102430.69;5091712;28;20409;-76
2023/01/23 09:53:44;;;;;;;11.40;6.10;;;;;;;6.06;70.90;102448.22;5091811;28;20446;-75
2023/01/23 09:56:37;;;;;;;11.53;6.00;;;;;;;5.93;71.36;102426.22;5103987;28;20411;-75
2023/01/23 09:59:07;;;;;;;11.80;6.38;;;;;;;6.01;70.96;102428.38;5091727;28;20438;-77
2023/01/23 10:01:32;;;;;;;11.50;6.50;;;;;;;6.35;70.40;102420.94;5105315;28;20379;-76
2023/01/23 10:04:00;;;;;;;10.27;5.67;;;;;;;6.17;70.63;102428.25;5091719;28;20381;-76
2023/01/23 10:06:29;;;;;;;11.18;6.50;;;;;;;6.32;70.55;102424.66;5104012;28;20376;-76
2023/01/23 10:08:57;;;;;;;9.25;5.15;;;;;;;6.06;70.62;102428.94;5096985;28;20417;-77
2023/01/23 10:12:03;;;;;;;11.03;6.20;;;;;;;6.05;71.01;102435.13;5099683;28;20776;-76
2023/01/23 10:14:39;;;;;;;8.90;5.15;;;;;;;5.92;71.26;102421.88;5061647;28;20412;-77
2023/01/23 10:17:28;;;;;;;9.88;5.93;;;;;;;6.03;71.22;102422.09;5105752;28;20375;-76
2023/01/23 10:20:12;;;;;;;10.68;6.22;;;;;;;6.01;71.19;102412.59;5104275;28;20392;-76
2023/01/23 10:22:45;;;;;;;12.30;6.65;;;;;;;6.12;70.87;102418.00;5098162;28;20365;-78
2023/01/23 10:25:20;;;;;;;10.20;5.68;;;;;;;6.17;70.64;102421.19;5106866;28;20374;-76
2023/01/23 10:27:48;;;;;;;8.77;5.05;;;;;;;6.01;71.06;102431.84;5092832;28;20388;-75
2023/01/23 10:30:23;;;;;;;11.20;5.78;;;;;;;5.97;71.40;102434.81;5111192;28;20415;-75
2023/01/23 10:32:57;;;;;;;10.02;5.20;;;;;;;6.08;71.21;102419.16;5090541;28;20385;-76
2023/01/23 10:35:51;;;;;;;9.95;5.40;;;;;;;6.02;70.59;102412.50;5110129;28;20372;-75
2023/01/23 10:38:19;;;;;;;11.45;6.13;;;;;;;6.04;71.26;102420.31;5111532;28;20383;-75
2023/01/23 10:43:31;;;;;;;12.38;6.15;;;;;;;6.27;70.71;102424.09;5106053;28;20733;-76
2023/01/23 10:45:56;;;;;;;16.07;8.60;;;;;;;6.30;70.51;102422.09;5103856;28;20831;-75
2023/01/23 10:48:31;;;;;;;12.50;6.35;;;;;;;6.14;70.70;102431.94;5106086;27;20438;-75
2023/01/23 10:50:57;;;;;;;11.35;6.50;;;;;;;6.23;70.68;102427.84;5097676;28;20454;-77
2023/01/23 10:53:24;;;;;;;10.67;5.83;;;;;;;6.31;69.93;102420.31;5109290;28;20391;-76
2023/01/23 10:55:51;;;;;;;10.02;5.78;;;;;;;6.24;70.47;102429.56;5103359;28;20414;-75
2023/01/23 10:58:32;;;;;;;9.63;5.27;;;;;;;6.20;70.09;102425.44;5117528;27;20777;-76
2023/01/23 11:00:59;;;;;;;10.40;5.05;;;;;;;6.03;70.80;102431.75;5114086;27;20394;-77
2023/01/23 11:03:31;;;;;;;9.80;5.43;;;;;;;6.05;70.60;102422.84;5106934;28;20438;-76
2023/01/23 11:06:08;;;;;;;10.57;5.78;;;;;;;6.24;70.12;102424.28;5100947;27;20388;-74
2023/01/23 11:08:50;;;;;;;12.60;5.57;;;;;;;6.03;70.54;102411.56;5107257;28;20462;-77
2023/01/23 11:11:22;;;;;;;13.45;6.47;;;;;;;6.23;69.84;102420.81;5099122;27;20824;-77
2023/01/23 11:13:50;;;;;;;12.23;6.90;;;;;;;6.16;70.83;102429.19;5097213;28;20479;-77
2023/01/23 11:16:20;;;;;;;9.52;6.00;;;;;;;5.98;70.93;102431.22;5096775;28;20384;-75
2023/01/23 11:19:08;;;;;;;10.32;5.38;;;;;;;5.99;71.19;102422.38;5096979;28;20404;-74
2023/01/23 11:21:51;;;;;;;12.20;5.85;;;;;;;5.98;70.88;102421.53;5109009;28;20741;-75
2023/01/23 11:24:19;;;;;;;11.27;5.38;;;;;;;5.79;71.63;102421.81;5097114;28;20829;-76
2023/01/23 11:26:45;;;;;;;10.00;6.15;;;;;;;5.92;71.17;102424.50;5105613;28;20367;-76
2023/01/23 11:29:22;;;;;;;12.02;5.72;;;;;;;5.75;71.52;102421.16;5103915;27;20856;-76
2023/01/23 11:31:52;;;;;;;10.15;5.15;;;;;;;5.70;71.62;102435.56;5104161;28;20399;-76
2023/01/23 11:34:23;;;;;;;10.38;5.70;;;;;;;5.71;71.77;102418.84;5117585;27;20395;-77
2023/01/23 11:37:16;;;;;;;7.25;4.63;;;;;;;5.59;71.96;102433.59;5117181;27;20375;-77